Time;durP1;ratioP1;P1;durP2;ratioP2;P2;SDS_P1;SDS_P2;PMS_P1;PMS_P2;Temp;Humidity;BMP_temperature;BMP_pressure;BME280_temperature;BME280_humidity;BME280_pressure;Samples;Min_cycle;Max_cycle;Signal;HPM_P1;HPM_P2
2023/11/25 00:00:13;;;;;;;37.00;15.10;;;;;;;3.55;68.58;99221.38;107656;1251;110720;-61
2023/11/25 00:03:01;;;;;;;33.70;14.50;;;;;;;3.56;68.70;99218.14;107583;1253;111647;-62
2023/11/25 00:05:30;;;;;;;33.70;15.10;;;;;;;3.57;68.78;99215.38;107578;1253;107318;-60
2023/11/25 00:07:58;;;;;;;34.40;15.20;;;;;;;3.57;68.65;99214.34;107608;1251;97851;-62
2023/11/25 00:10:26;;;;;;;33.30;14.30;;;;;;;3.58;68.71;99222.41;107483;1251;98348;-61
2023/11/25 00:12:54;;;;;;;35.60;14.60;;;;;;;3.59;68.94;99231.57;107581;1251;111089;-60
2023/11/25 00:15:25;;;;;;;28.30;14.50;;;;;;;3.59;69.11;99232.37;107602;1250;109102;-60
2023/11/25 00:17:55;;;;;;;37.60;14.80;;;;;;;3.62;69.12;99233.27;107586;1253;108294;-60
2023/11/25 00:20:25;;;;;;;38.10;15.50;;;;;;;3.63;68.88;99233.48;107597;1256;97851;-60
2023/11/25 00:22:53;;;;;;;29.40;13.70;;;;;;;3.60;68.72;99241.21;107639;1251;98389;-60
2023/11/25 00:25:24;;;;;;;43.80;15.30;;;;;;;3.56;68.98;99248.98;107581;1251;110863;-61
2023/11/25 00:27:52;;;;;;;27.00;14.30;;;;;;;3.51;68.95;99258.80;107577;1251;109374;-61
2023/11/25 00:30:21;;;;;;;29.00;14.80;;;;;;;3.42;68.90;99258.60;107623;1251;107615;-60
2023/11/25 00:32:50;;;;;;;34.70;12.40;;;;;;;3.40;69.12;99254.93;107540;1251;97869;-59
2023/11/25 00:35:19;;;;;;;36.00;15.00;;;;;;;3.36;68.80;99254.56;107655;1254;98463;-59
2023/11/25 00:37:47;;;;;;;28.00;14.80;;;;;;;3.34;68.91;99247.42;107429;1253;112078;-61
2023/11/25 00:40:16;;;;;;;30.40;14.40;;;;;;;3.34;69.44;99243.69;107649;1255;109229;-60
2023/11/25 00:42:47;;;;;;;31.40;14.10;;;;;;;3.31;69.18;99244.67;107668;1251;108245;-61
2023/11/25 00:45:15;;;;;;;38.50;16.80;;;;;;;3.28;69.38;99238.91;107558;1253;97944;-60
2023/11/25 00:47:45;;;;;;;27.40;14.70;;;;;;;3.26;69.14;99230.20;107616;1255;97851;-60
2023/11/25 00:50:16;;;;;;;28.40;14.80;;;;;;;3.24;69.54;99232.77;107628;1253;110510;-61
2023/11/25 00:52:45;;;;;;;35.40;17.10;;;;;;;3.22;69.72;99227.85;107598;1251;109915;-60
2023/11/25 00:55:14;;;;;;;39.80;17.70;;;;;;;3.22;69.82;99229.27;107586;1255;108609;-60
2023/11/25 00:57:43;;;;;;;31.70;16.80;;;;;;;3.24;69.97;99235.69;107631;1255;97952;-59
2023/11/25 01:00:15;;;;;;;38.80;17.80;;;;;;;3.28;70.27;99242.59;107450;1252;97848;-59
2023/11/25 01:02:45;;;;;;;31.20;16.10;;;;;;;3.31;70.13;99241.99;107609;1253;111791;-60
2023/11/25 01:05:13;;;;;;;33.80;15.30;;;;;;;3.33;69.81;99243.63;107641;1253;109769;-60
2023/11/25 01:07:41;;;;;;;32.40;17.10;;;;;;;3.33;69.78;99239.23;107647;1253;107105;-59
2023/11/25 01:10:10;;;;;;;31.30;15.70;;;;;;;3.31;69.71;99238.45;107614;1251;97822;-59
2023/11/25 01:12:38;;;;;;;52.90;16.30;;;;;;;3.29;69.85;99234.20;107558;1251;97897;-60
2023/11/25 01:15:07;;;;;;;39.60;15.40;;;;;;;3.26;69.60;99232.46;107595;1251;112539;-60
2023/11/25 01:17:36;;;;;;;34.50;16.30;;;;;;;3.24;69.40;99230.73;107645;1250;109718;-60
2023/11/25 01:20:06;;;;;;;32.20;16.50;;;;;;;3.22;69.82;99228.05;107450;1256;107443;-61
2023/11/25 01:22:35;;;;;;;42.20;16.00;;;;;;;3.20;69.74;99231.91;107570;1252;97752;-61
2023/11/25 01:25:04;;;;;;;32.40;15.30;;;;;;;3.17;69.56;99223.83;107605;1253;97906;-61
2023/11/25 01:27:33;;;;;;;36.40;15.70;;;;;;;3.14;69.66;99224.42;107641;1251;110330;-61
2023/11/25 01:30:04;;;;;;;27.60;14.80;;;;;;;3.11;69.84;99221.16;107649;1251;108184;-61
2023/11/25 01:32:33;;;;;;;39.70;18.00;;;;;;;3.07;70.04;99222.55;107610;1253;107857;-60
2023/11/25 01:35:02;;;;;;;31.60;17.00;;;;;;;3.02;69.80;99222.02;107434;1253;97870;-60
2023/11/25 01:37:30;;;;;;;32.10;15.50;;;;;;;3.00;69.80;99215.99;107529;1253;97732;-60
2023/11/25 01:39:59;;;;;;;40.20;17.30;;;;;;;2.97;69.92;99219.95;107619;1253;111451;-60
2023/11/25 01:42:28;;;;;;;38.70;16.00;;;;;;;2.96;69.94;99227.30;107579;1253;108270;-60
2023/11/25 01:44:57;;;;;;;43.30;17.50;;;;;;;2.97;70.22;99223.83;107596;1252;107962;-61
2023/11/25 01:47:26;;;;;;;32.90;16.50;;;;;;;3.01;70.38;99222.88;107584;1252;97923;-61
2023/11/25 01:49:55;;;;;;;36.10;16.70;;;;;;;3.04;70.45;99224.75;107682;1252;99024;-61
2023/11/25 01:52:24;;;;;;;39.50;17.90;;;;;;;3.07;70.60;99228.02;107625;1251;110645;-62
2023/11/25 01:54:53;;;;;;;37.70;18.30;;;;;;;3.09;70.56;99227.88;107658;1251;108733;-61
2023/11/25 01:57:22;;;;;;;32.90;16.80;;;;;;;3.10;70.47;99226.19;107431;1253;107104;-59
2023/11/25 01:59:50;;;;;;;46.60;19.60;;;;;;;3.13;70.58;99233.02;107444;1251;97994;-60
2023/11/25 02:02:21;;;;;;;47.80;20.20;;;;;;;3.15;70.77;99235.91;107425;1257;97845;-60
2023/11/25 02:04:49;;;;;;;40.20;18.50;;;;;;;3.21;71.00;99240.39;107668;1253;110726;-61
2023/11/25 02:07:19;;;;;;;32.30;17.50;;;;;;;3.25;71.06;99246.33;107438;1257;109073;-60
2023/11/25 02:09:47;;;;;;;29.50;16.20;;;;;;;3.27;71.39;99254.60;107562;1255;107854;-60
2023/11/25 02:12:16;;;;;;;39.80;18.00;;;;;;;3.16;72.40;99255.27;107643;1251;97822;-60
2023/11/25 02:14:47;;;;;;;37.20;16.40;;;;;;;3.05;72.44;99256.56;107615;1251;98450;-60
2023/11/25 02:17:16;;;;;;;46.00;18.20;;;;;;;3.00;72.12;99258.50;107665;1251;111951;-60
2023/11/25 02:19:45;;;;;;;33.00;17.40;;;;;;;3.00;71.96;99265.46;107500;1251;108523;-60
2023/11/25 02:22:13;;;;;;;33.60;16.60;;;;;;;3.00;71.69;99271.15;107462;1253;106319;-60
2023/11/25 02:24:41;;;;;;;33.40;17.00;;;;;;;3.01;71.60;99272.46;107609;1253;97844;-61
2023/11/25 02:27:12;;;;;;;37.10;17.90;;;;;;;3.02;71.56;99276.95;107530;1253;97847;-61
2023/11/25 02:29:40;;;;;;;43.30;19.30;;;;;;;3.03;71.47;99272.27;107619;1251;112060;-60
2023/11/25 02:32:09;;;;;;;41.20;18.60;;;;;;;3.04;71.54;99268.71;107613;1253;108836;-61
2023/11/25 02:34:38;;;;;;;28.70;14.50;;;;;;;3.04;72.34;99265.28;107624;1253;108503;-61
2023/11/25 02:37:06;;;;;;;31.60;15.30;;;;;;;3.04;73.04;99265.13;107441;1253;97856;-60
2023/11/25 02:39:37;;;;;;;36.40;14.30;;;;;;;3.03;72.63;99259.22;107445;1253;97820;-60
2023/11/25 02:42:06;;;;;;;34.20;16.10;;;;;;;3.04;72.24;99267.45;107641;1253;111605;-60
2023/11/25 02:44:38;;;;;;;30.80;14.50;;;;;;;3.05;72.37;99263.80;107633;1255;109512;-60
2023/11/25 02:47:07;;;;;;;28.20;14.20;;;;;;;3.10;72.48;99277.41;107574;1251;108172;-61
2023/11/25 02:49:36;;;;;;;28.90;13.20;;;;;;;3.16;72.51;99280.63;107420;1253;97824;-59
2023/11/25 02:52:05;;;;;;;28.70;13.70;;;;;;;3.21;72.44;99276.67;107676;1253;97794;-59
2023/11/25 02:54:34;;;;;;;30.00;13.80;;;;;;;3.27;72.54;99278.35;107479;1256;111158;-60
2023/11/25 02:57:07;;;;;;;32.50;14.10;;;;;;;3.32;72.37;99286.25;107679;1253;109582;-61
2023/11/25 02:59:36;;;;;;;35.70;14.10;;;;;;;3.37;72.30;99289.72;107626;1252;108869;-61
2023/11/25 03:02:09;;;;;;;26.80;13.60;;;;;;;3.42;72.18;99288.20;107502;1253;98058;-60
2023/11/25 03:04:41;;;;;;;30.00;13.30;;;;;;;3.48;72.30;99285.81;107474;1254;97863;-60
2023/11/25 03:07:10;;;;;;;24.20;12.00;;;;;;;3.54;72.31;99282.83;107607;1251;111353;-61
2023/11/25 03:09:38;;;;;;;22.30;12.30;;;;;;;3.57;72.32;99282.23;107556;1251;108674;-60
2023/11/25 03:12:07;;;;;;;22.20;10.00;;;;;;;3.57;72.25;99280.06;107630;1251;107328;-60
2023/11/25 03:14:35;;;;;;;20.60;11.90;;;;;;;3.57;72.20;99283.27;107565;1251;97847;-60
2023/11/25 03:17:03;;;;;;;21.60;11.90;;;;;;;3.57;72.05;99285.55;107615;1251;98414;-59
2023/11/25 03:19:32;;;;;;;24.00;12.20;;;;;;;3.60;72.30;99296.01;107512;1251;111152;-59
2023/11/25 03:22:02;;;;;;;23.00;11.90;;;;;;;3.65;72.44;99301.64;107536;1251;109822;-60
2023/11/25 03:24:30;;;;;;;22.20;11.10;;;;;;;3.65;72.14;99298.29;107506;1251;108317;-61
2023/11/25 03:26:58;;;;;;;23.50;11.00;;;;;;;3.66;72.26;99305.05;107540;1251;97857;-60
2023/11/25 03:29:26;;;;;;;23.00;10.20;;;;;;;3.69;72.15;99309.23;107650;1251;98370;-60
2023/11/25 03:31:56;;;;;;;22.00;10.50;;;;;;;3.71;71.98;99304.80;107659;1251;111306;-60
2023/11/25 03:34:25;;;;;;;18.10;9.40;;;;;;;3.73;71.90;99315.81;107555;1251;108773;-60
2023/11/25 03:36:53;;;;;;;23.10;9.30;;;;;;;3.70;71.58;99321.55;107545;1251;106791;-60
2023/11/25 03:39:22;;;;;;;23.40;9.40;;;;;;;3.70;71.43;99321.08;107527;1254;97736;-60
2023/11/25 03:41:50;;;;;;;19.40;8.60;;;;;;;3.65;71.14;99320.94;107602;1253;97720;-59
2023/11/25 03:44:18;;;;;;;16.40;8.20;;;;;;;3.63;70.99;99322.67;107513;1250;111236;-60
2023/11/25 03:46:47;;;;;;;17.80;8.70;;;;;;;3.66;70.86;99330.83;107546;1251;109145;-59
2023/11/25 03:49:16;;;;;;;18.90;9.40;;;;;;;3.68;70.73;99329.69;107585;1251;108159;-59
2023/11/25 03:51:46;;;;;;;20.50;10.20;;;;;;;3.67;70.36;99328.42;107548;1250;97921;-60
2023/11/25 03:54:14;;;;;;;18.60;9.30;;;;;;;3.62;70.20;99332.55;107583;1251;98354;-60
2023/11/25 03:56:42;;;;;;;24.90;9.90;;;;;;;3.58;70.10;99328.80;107576;1254;112267;-60
2023/11/25 03:59:11;;;;;;;22.80;9.50;;;;;;;3.52;69.90;99329.46;107594;1250;108603;-60
2023/11/25 04:01:41;;;;;;;20.00;9.40;;;;;;;3.44;69.87;99327.97;107517;1250;107369;-60
2023/11/25 04:04:11;;;;;;;15.40;8.40;;;;;;;3.39;69.74;99326.20;107505;1254;97844;-60
2023/11/25 04:06:39;;;;;;;20.30;9.50;;;;;;;3.36;69.85;99334.13;107639;1251;97848;-61
2023/11/25 04:09:07;;;;;;;17.80;8.10;;;;;;;3.32;69.77;99344.68;107595;1254;111983;-59
2023/11/25 04:11:36;;;;;;;23.50;12.90;;;;;;;3.32;69.72;99345.77;107623;1253;109764;-60
2023/11/25 04:14:04;;;;;;;28.10;12.50;;;;;;;3.32;69.93;99339.70;107630;1251;106091;-60
2023/11/25 04:16:32;;;;;;;28.10;15.40;;;;;;;3.33;70.03;99337.77;107601;1250;97817;-59
2023/11/25 04:19:06;;;;;;;27.70;10.30;;;;;;;3.26;69.80;99342.36;107562;1253;97825;-59
2023/11/25 04:21:39;;;;;;;19.00;9.30;;;;;;;3.23;69.89;99335.52;107628;1256;111797;-60
2023/11/25 04:24:11;;;;;;;20.70;8.80;;;;;;;3.23;69.90;99328.77;107620;1253;109390;-61
2023/11/25 04:26:40;;;;;;;17.00;9.20;;;;;;;3.23;69.93;99318.85;107525;1253;107917;-60
2023/11/25 04:29:09;;;;;;;16.50;9.00;;;;;;;3.23;69.76;99314.46;107588;1254;97871;-58
2023/11/25 04:31:37;;;;;;;17.50;9.10;;;;;;;3.21;69.74;99314.77;107605;1255;97857;-59
2023/11/25 04:34:06;;;;;;;23.50;11.00;;;;;;;3.19;69.74;99313.16;107604;1251;111959;-59
2023/11/25 04:36:35;;;;;;;18.90;9.00;;;;;;;3.16;69.68;99313.72;107583;1251;108988;-60
2023/11/25 04:39:04;;;;;;;20.60;10.10;;;;;;;3.14;69.60;99315.86;107612;1251;108604;-60
2023/11/25 04:41:32;;;;;;;19.20;10.50;;;;;;;3.10;69.96;99313.70;107600;1251;97713;-59
2023/11/25 04:44:00;;;;;;;16.30;8.60;;;;;;;3.04;69.72;99311.65;107641;1251;97803;-60
2023/11/25 04:46:30;;;;;;;15.00;8.00;;;;;;;3.00;69.90;99313.60;107618;1254;112013;-60
2023/11/25 04:48:58;;;;;;;18.90;7.90;;;;;;;2.97;69.92;99313.62;107605;1253;108615;-59
2023/11/25 04:51:28;;;;;;;17.00;8.20;;;;;;;2.98;69.70;99313.80;107586;1254;108413;-60
2023/11/25 04:53:57;;;;;;;17.70;9.30;;;;;;;2.97;69.76;99307.77;107632;1251;97934;-60
2023/11/25 04:56:25;;;;;;;18.60;8.30;;;;;;;2.99;69.97;99299.70;107585;1253;97684;-58
2023/11/25 04:58:54;;;;;;;14.40;8.20;;;;;;;3.02;70.33;99300.01;107575;1250;111818;-60
2023/11/25 05:01:22;;;;;;;21.40;8.20;;;;;;;3.01;70.18;99291.92;107545;1251;108752;-60
2023/11/25 05:03:51;;;;;;;16.00;7.80;;;;;;;3.06;70.37;99299.64;107596;1253;108420;-60
2023/11/25 05:06:19;;;;;;;16.60;8.30;;;;;;;3.08;70.48;99299.88;107411;1257;97821;-58
2023/11/25 05:08:47;;;;;;;20.90;8.60;;;;;;;3.09;70.32;99298.71;107661;1253;97752;-60
2023/11/25 05:11:15;;;;;;;17.20;8.70;;;;;;;3.11;70.35;99300.16;107631;1252;111711;-61
2023/11/25 05:13:45;;;;;;;18.00;8.10;;;;;;;3.14;70.53;99309.27;107647;1253;109990;-60
2023/11/25 05:16:13;;;;;;;14.90;8.10;;;;;;;3.16;70.55;99309.38;107569;1253;108240;-61
2023/11/25 05:18:42;;;;;;;18.30;8.00;;;;;;;3.20;70.69;99310.59;107594;1251;97820;-61
2023/11/25 05:21:10;;;;;;;13.40;7.30;;;;;;;3.24;70.71;99315.90;107531;1251;97918;-60
2023/11/25 05:23:39;;;;;;;18.80;8.80;;;;;;;3.28;70.60;99317.37;107599;1253;111295;-60
2023/11/25 05:26:08;;;;;;;15.00;7.80;;;;;;;3.35;70.60;99315.41;107454;1253;110664;-59
2023/11/25 05:28:36;;;;;;;17.10;7.70;;;;;;;3.39;70.41;99312.06;107616;1253;108087;-60
2023/11/25 05:31:04;;;;;;;16.70;7.50;;;;;;;3.43;70.39;99313.86;107563;1253;98458;-59
2023/11/25 05:33:33;;;;;;;18.10;7.70;;;;;;;3.47;70.31;99316.20;107600;1253;97824;-59
2023/11/25 05:36:02;;;;;;;23.30;8.30;;;;;;;3.51;69.97;99323.08;107596;1252;111421;-59
2023/11/25 05:38:30;;;;;;;13.80;7.60;;;;;;;3.51;69.53;99325.98;107665;1251;109201;-60
2023/11/25 05:40:58;;;;;;;14.50;8.50;;;;;;;3.34;68.82;99335.91;107598;1251;108050;-60
2023/11/25 05:43:27;;;;;;;20.60;9.30;;;;;;;3.13;68.80;99340.75;107607;1252;97838;-59
2023/11/25 05:45:55;;;;;;;16.30;8.60;;;;;;;2.95;68.99;99346.61;107543;1251;98460;-60
2023/11/25 05:48:25;;;;;;;15.80;7.80;;;;;;;2.83;69.41;99354.76;107650;1251;112307;-59
2023/11/25 05:50:53;;;;;;;21.60;8.80;;;;;;;2.73;69.53;99360.19;107520;1252;108457;-62
2023/11/25 05:53:21;;;;;;;16.10;7.90;;;;;;;2.64;69.87;99361.05;107660;1255;107378;-62
2023/11/25 05:55:50;;;;;;;19.10;8.50;;;;;;;2.55;69.81;99364.06;107614;1251;97918;-60
2023/11/25 05:58:18;;;;;;;14.10;6.60;;;;;;;2.49;69.92;99367.52;107658;1253;98496;-61
2023/11/25 06:00:47;;;;;;;16.90;8.40;;;;;;;2.46;69.88;99362.05;107622;1251;112034;-60
2023/11/25 06:03:15;;;;;;;19.20;8.40;;;;;;;2.48;70.01;99364.72;107582;1251;109268;-61
2023/11/25 06:05:44;;;;;;;19.90;8.90;;;;;;;2.52;69.90;99361.62;107605;1253;108698;-60
2023/11/25 06:08:13;;;;;;;18.20;9.70;;;;;;;2.54;70.10;99356.40;107474;1252;97842;-58
2023/11/25 06:10:43;;;;;;;17.80;8.60;;;;;;;2.54;69.69;99354.04;107608;1252;97838;-59
2023/11/25 06:13:15;;;;;;;16.30;8.20;;;;;;;2.55;69.60;99352.89;107615;1253;111583;-59
2023/11/25 06:15:43;;;;;;;22.30;9.90;;;;;;;2.60;69.67;99352.89;107610;1253;109257;-60
2023/11/25 06:18:13;;;;;;;23.30;9.10;;;;;;;2.66;69.71;99347.48;107620;1252;107423;-59
2023/11/25 06:20:43;;;;;;;21.00;8.20;;;;;;;2.71;69.52;99341.73;107566;1253;97875;-60
2023/11/25 06:23:12;;;;;;;19.60;7.20;;;;;;;2.76;69.57;99338.88;107633;1253;97831;-59
2023/11/25 06:25:42;;;;;;;12.70;6.70;;;;;;;2.80;69.40;99342.60;107602;1253;110759;-61
2023/11/25 06:28:14;;;;;;;16.60;7.30;;;;;;;2.84;69.17;99349.21;107610;1255;108080;-60
2023/11/25 06:30:43;;;;;;;13.80;7.80;;;;;;;2.87;69.03;99353.65;107618;1253;107308;-60
2023/11/25 06:33:11;;;;;;;21.70;7.80;;;;;;;2.89;69.10;99347.77;107592;1253;97853;-59
2023/11/25 06:35:40;;;;;;;18.20;10.00;;;;;;;2.91;68.83;99352.08;107635;1253;97847;-60
2023/11/25 06:38:08;;;;;;;23.00;8.70;;;;;;;2.93;68.68;99355.63;107682;1252;112079;-61
2023/11/25 06:40:37;;;;;;;19.20;7.80;;;;;;;2.96;68.74;99350.73;107650;1251;109911;-61
2023/11/25 06:43:06;;;;;;;16.10;8.40;;;;;;;2.96;68.61;99347.91;107705;1251;108905;-60
2023/11/25 06:45:40;;;;;;;14.80;7.50;;;;;;;2.97;68.17;99343.61;107551;1253;97833;-60
2023/11/25 06:48:08;;;;;;;22.30;9.50;;;;;;;2.99;68.11;99346.83;107629;1251;97713;-60
2023/11/25 06:50:38;;;;;;;13.70;8.10;;;;;;;3.03;68.09;99345.41;107596;1253;110035;-60
2023/11/25 06:53:07;;;;;;;18.80;7.90;;;;;;;3.01;67.55;99351.05;107648;1251;110298;-61
2023/11/25 06:55:36;;;;;;;15.80;7.00;;;;;;;2.93;67.12;99359.64;107598;1255;108173;-60
2023/11/25 06:58:04;;;;;;;16.50;6.70;;;;;;;2.84;66.92;99363.42;107543;1253;98617;-60
2023/11/25 07:00:33;;;;;;;18.40;7.20;;;;;;;2.74;67.15;99369.63;107462;1255;97948;-59
2023/11/25 07:03:01;;;;;;;12.20;6.20;;;;;;;2.72;67.35;99375.51;107594;1251;111309;-60
2023/11/25 07:05:31;;;;;;;17.40;7.10;;;;;;;2.70;67.25;99369.98;107589;1251;109720;-61
2023/11/25 07:07:59;;;;;;;12.40;7.20;;;;;;;2.69;67.14;99364.56;107532;1252;109172;-60
2023/11/25 07:10:32;;;;;;;21.90;7.40;;;;;;;2.76;67.63;99370.23;107458;1253;97907;-61
2023/11/25 07:13:02;;;;;;;19.50;7.20;;;;;;;2.90;68.06;99370.40;107584;1253;97862;-61
2023/11/25 07:15:31;;;;;;;24.40;8.10;;;;;;;3.03;68.20;99364.35;107558;1255;112204;-60
2023/11/25 07:18:00;;;;;;;18.00;7.60;;;;;;;3.16;67.96;99363.40;107573;1253;108867;-59
2023/11/25 07:20:28;;;;;;;16.50;7.00;;;;;;;3.19;67.09;99362.46;107518;1253;107353;-59
2023/11/25 07:22:57;;;;;;;16.60;7.00;;;;;;;3.16;66.75;99360.88;107534;1251;97854;-60
2023/11/25 07:25:27;;;;;;;20.00;7.80;;;;;;;3.20;66.86;99362.30;107539;1253;97742;-60
2023/11/25 07:27:56;;;;;;;19.70;7.10;;;;;;;3.16;66.21;99366.00;107561;1252;111359;-59
2023/11/25 07:30:24;;;;;;;16.50;7.90;;;;;;;3.05;66.35;99374.85;107606;1251;109644;-59
2023/11/25 07:32:52;;;;;;;12.80;7.10;;;;;;;2.97;66.61;99376.69;107529;1255;108492;-60
2023/11/25 07:35:21;;;;;;;16.70;7.40;;;;;;;2.88;66.58;99379.90;107522;1253;97920;-60
2023/11/25 07:37:49;;;;;;;18.80;7.60;;;;;;;2.84;66.87;99382.38;107522;1255;97916;-60
2023/11/25 07:40:19;;;;;;;18.50;8.80;;;;;;;2.84;67.12;99381.33;107533;1252;111290;-61
2023/11/25 07:42:50;;;;;;;24.20;8.50;;;;;;;2.89;67.20;99385.13;107524;1253;109807;-61
2023/11/25 07:45:18;;;;;;;14.60;7.90;;;;;;;3.00;67.55;99382.52;107555;1254;107765;-61
2023/11/25 07:47:47;;;;;;;19.90;8.60;;;;;;;3.09;67.43;99373.09;107542;1251;97937;-61
2023/11/25 07:50:17;;;;;;;22.10;10.10;;;;;;;3.14;67.25;99364.73;107597;1251;98475;-61
2023/11/25 07:52:46;;;;;;;21.50;7.90;;;;;;;3.24;67.02;99359.15;107580;1253;112164;-59
2023/11/25 07:55:14;;;;;;;19.10;8.00;;;;;;;3.34;67.03;99360.48;107573;1253;109866;-60
2023/11/25 07:57:43;;;;;;;20.30;7.90;;;;;;;3.45;66.95;99364.02;107632;1251;107623;-60
2023/11/25 08:00:15;;;;;;;18.80;9.20;;;;;;;3.54;66.79;99364.05;107600;1252;97904;-61
2023/11/25 08:02:49;;;;;;;18.50;8.40;;;;;;;3.60;66.57;99357.48;107542;1254;97875;-60
2023/11/25 08:05:25;;;;;;;29.90;11.70;;;;;;;3.66;66.33;99361.84;107686;1251;112958;-61
2023/11/25 08:07:54;;;;;;;32.50;9.40;;;;;;;3.69;66.29;99353.27;107577;1253;108456;-59
2023/11/25 08:10:31;;;;;;;18.10;8.00;;;;;;;3.71;66.19;99356.44;107626;1253;106695;-60
2023/11/25 08:13:01;;;;;;;22.20;7.90;;;;;;;3.72;65.98;99361.11;107556;1253;97835;-60
2023/11/25 08:15:31;;;;;;;19.20;9.00;;;;;;;3.75;66.05;99362.98;107647;1253;97816;-60
2023/11/25 08:17:59;;;;;;;16.40;8.30;;;;;;;3.79;65.96;99371.77;107577;1253;111324;-61
2023/11/25 08:20:28;;;;;;;24.30;9.30;;;;;;;3.75;65.52;99383.27;107592;1253;108316;-60
2023/11/25 08:22:56;;;;;;;20.10;8.70;;;;;;;3.65;65.48;99392.40;107567;1255;106896;-61
2023/11/25 08:25:25;;;;;;;27.60;8.70;;;;;;;3.61;65.70;99394.83;107610;1253;97872;-60
2023/11/25 08:27:53;;;;;;;22.90;9.30;;;;;;;3.63;65.76;99396.23;107600;1253;97957;-60
2023/11/25 08:30:22;;;;;;;28.90;10.40;;;;;;;3.65;65.66;99391.52;107605;1253;110970;-59
2023/11/25 08:32:50;;;;;;;26.10;9.70;;;;;;;3.68;65.79;99391.05;107632;1253;108757;-59
2023/11/25 08:35:19;;;;;;;23.60;10.20;;;;;;;3.72;65.97;99398.40;107512;1251;108379;-59
2023/11/25 08:37:48;;;;;;;21.40;9.90;;;;;;;3.73;65.89;99403.92;107589;1250;97898;-59
2023/11/25 08:40:17;;;;;;;19.50;9.60;;;;;;;3.73;65.66;99404.13;107478;1252;97745;-60
2023/11/25 08:42:46;;;;;;;19.40;9.30;;;;;;;3.76;65.83;99402.31;107499;1255;111884;-59
2023/11/25 08:45:15;;;;;;;22.70;9.90;;;;;;;3.81;65.52;99403.48;107511;1251;110843;-60
2023/11/25 08:47:43;;;;;;;19.70;9.40;;;;;;;3.87;65.63;99400.19;107435;1255;109147;-59
2023/11/25 08:50:15;;;;;;;22.40;10.60;;;;;;;3.92;65.62;99403.86;107458;1253;97855;-59
2023/11/25 08:52:48;;;;;;;19.00;10.10;;;;;;;3.96;65.63;99398.91;107500;1252;97833;-60
2023/11/25 08:55:19;;;;;;;25.10;10.70;;;;;;;3.88;65.35;99411.20;107480;1253;112559;-61
2023/11/25 08:57:51;;;;;;;28.80;9.80;;;;;;;3.76;65.49;99422.16;107512;1253;109647;-62
2023/11/25 09:00:20;;;;;;;20.60;9.30;;;;;;;3.73;65.91;99428.38;107585;1251;106820;-60
2023/11/25 09:02:50;;;;;;;24.40;10.80;;;;;;;3.70;65.84;99430.78;107514;1252;97824;-61
2023/11/25 09:05:21;;;;;;;19.00;10.30;;;;;;;3.70;66.09;99429.73;107562;1253;98381;-60
2023/11/25 09:07:52;;;;;;;26.80;10.10;;;;;;;3.71;66.35;99423.41;107543;1253;111425;-60
2023/11/25 09:10:22;;;;;;;26.50;9.80;;;;;;;3.79;66.44;99425.99;107477;1251;109008;-61
2023/11/25 09:12:52;;;;;;;17.70;8.70;;;;;;;3.90;66.43;99426.88;107468;1252;107592;-61
2023/11/25 09:15:22;;;;;;;25.00;8.90;;;;;;;3.97;66.54;99411.98;107475;1253;97822;-61
2023/11/25 09:17:50;;;;;;;18.90;8.00;;;;;;;3.98;66.15;99405.33;107564;1251;98364;-59
2023/11/25 09:20:21;;;;;;;27.80;9.60;;;;;;;4.06;66.24;99402.16;107513;1253;112345;-60
2023/11/25 09:22:51;;;;;;;19.60;9.30;;;;;;;4.17;66.32;99401.44;107466;1253;108656;-60
2023/11/25 09:25:20;;;;;;;27.70;9.40;;;;;;;4.26;66.30;99399.56;107425;1253;107705;-60
2023/11/25 09:27:50;;;;;;;20.90;9.10;;;;;;;4.29;65.74;99392.38;107491;1253;97719;-60
2023/11/25 09:30:18;;;;;;;21.80;10.10;;;;;;;4.30;65.95;99387.04;107527;1251;97716;-60
2023/11/25 09:32:47;;;;;;;14.90;9.10;;;;;;;4.30;65.87;99383.25;107452;1252;110881;-61
2023/11/25 09:35:16;;;;;;;22.40;9.60;;;;;;;4.38;66.07;99375.48;107412;1253;109888;-60
2023/11/25 09:37:45;;;;;;;20.90;9.60;;;;;;;4.48;66.12;99359.42;107439;1253;107749;-60
2023/11/25 09:40:18;;;;;;;19.40;8.20;;;;;;;4.55;65.88;99349.20;107491;1251;97864;-61
2023/11/25 09:42:47;;;;;;;18.30;8.50;;;;;;;4.61;65.88;99346.73;107457;1253;97837;-60
2023/11/25 09:45:19;;;;;;;19.40;8.30;;;;;;;4.67;65.50;99346.37;107497;1255;112217;-62
2023/11/25 09:47:48;;;;;;;15.40;7.60;;;;;;;4.73;65.16;99348.95;107545;1253;109420;-60
2023/11/25 09:50:19;;;;;;;18.80;8.40;;;;;;;4.76;64.90;99348.67;107480;1253;106469;-60
2023/11/25 09:52:52;;;;;;;21.10;8.30;;;;;;;4.79;64.64;99347.91;107503;1254;97911;-59
2023/11/25 09:55:25;;;;;;;20.50;9.20;;;;;;;4.83;64.51;99348.27;107588;1253;97714;-59
2023/11/25 09:58:06;;;;;;;19.70;7.90;;;;;;;4.89;64.40;99344.36;107451;1253;110835;-60
2023/11/25 10:00:37;;;;;;;16.60;8.80;;;;;;;4.92;64.14;99344.23;107589;1253;109127;-60
2023/11/25 10:03:10;;;;;;;25.70;9.00;;;;;;;4.97;63.99;99332.98;107577;1252;108034;-60
2023/11/25 10:05:39;;;;;;;20.60;9.50;;;;;;;5.00;63.91;99332.36;107527;1251;97826;-60
2023/11/25 10:08:07;;;;;;;24.60;9.60;;;;;;;5.03;63.73;99334.39;107516;1253;98395;-60
2023/11/25 10:10:36;;;;;;;21.00;9.50;;;;;;;5.04;63.66;99336.97;107366;1257;112115;-60
2023/11/25 10:13:16;;;;;;;22.80;8.70;;;;;;;5.01;63.13;99339.01;106994;1253;612398;-61
2023/11/25 10:15:46;;;;;;;23.30;9.90;;;;;;;4.99;62.90;99337.80;107477;1251;107020;-61
2023/11/25 10:18:14;;;;;;;19.80;8.90;;;;;;;4.95;62.73;99343.27;107482;1252;97910;-61
2023/11/25 10:20:43;;;;;;;18.20;9.10;;;;;;;4.92;62.97;99348.73;107475;1251;97836;-61
2023/11/25 10:23:21;;;;;;;26.90;9.50;;;;;;;4.90;63.03;99351.31;107520;1253;112180;-61
2023/11/25 10:25:53;;;;;;;29.10;10.30;;;;;;;4.92;62.81;99354.94;107582;1251;108093;-61
2023/11/25 10:28:25;;;;;;;22.40;9.70;;;;;;;4.93;63.07;99354.08;107564;1251;107223;-60
2023/11/25 10:30:59;;;;;;;20.00;9.60;;;;;;;4.95;63.24;99355.55;107543;1253;98075;-61
2023/11/25 10:33:28;;;;;;;;;;;;;;;4.98;63.24;99350.30;107531;1252;98109;-60
2023/11/25 10:35:58;;;;;;;24.10;10.40;;;;;;;4.99;63.12;99350.90;107482;1253;111807;-60
2023/11/25 10:38:27;;;;;;;23.30;9.40;;;;;;;5.01;63.29;99344.20;107540;1252;108045;-60
2023/11/25 10:41:05;;;;;;;21.70;10.00;;;;;;;5.01;63.05;99341.70;107554;1255;107078;-60
2023/11/25 10:43:34;;;;;;;23.30;9.90;;;;;;;5.01;63.04;99340.48;107545;1251;98028;-61
2023/11/25 10:46:07;;;;;;;22.70;10.20;;;;;;;5.00;62.78;99334.30;107404;1253;97865;-61
2023/11/25 10:48:38;;;;;;;25.30;10.40;;;;;;;4.99;62.82;99327.66;107412;1255;112229;-61
2023/11/25 10:51:08;;;;;;;34.90;10.80;;;;;;;4.99;63.01;99318.40;107404;1253;108723;-62
2023/11/25 10:53:39;;;;;;;26.00;10.60;;;;;;;5.02;62.94;99312.63;107492;1254;107210;-62
2023/11/25 10:56:07;;;;;;;27.40;10.30;;;;;;;5.03;62.89;99307.95;107494;1255;99192;-59
2023/11/25 10:58:37;;;;;;;24.90;10.60;;;;;;;5.02;62.78;99309.60;107546;1255;97926;-60
2023/11/25 11:01:06;;;;;;;25.30;11.30;;;;;;;5.02;62.79;99302.84;107510;1253;112304;-60
2023/11/25 11:03:48;;;;;;;28.80;10.50;;;;;;;5.04;62.78;99298.10;107494;1253;109351;-60
2023/11/25 11:06:22;;;;;;;26.90;12.00;;;;;;;5.06;62.95;99299.48;107552;1254;107299;-60
2023/11/25 11:08:53;;;;;;;27.60;10.70;;;;;;;5.09;63.00;99301.04;107461;1251;97823;-60
2023/11/25 11:11:33;;;;;;;26.60;11.10;;;;;;;5.08;62.82;99299.13;107514;1251;97714;-60
2023/11/25 11:14:12;;;;;;;23.40;11.70;;;;;;;5.11;62.76;99301.91;107551;1251;111159;-60
2023/11/25 11:16:41;;;;;;;41.30;11.00;;;;;;;5.16;62.85;99303.96;107500;1254;109339;-60
2023/11/25 11:19:10;;;;;;;34.20;11.70;;;;;;;5.19;62.87;99298.87;107563;1253;108208;-61
2023/11/25 11:21:38;;;;;;;24.30;10.60;;;;;;;5.22;62.89;99295.03;107437;1253;97832;-60
2023/11/25 11:24:08;;;;;;;25.80;10.30;;;;;;;5.23;62.70;99290.02;107447;1253;98374;-60
2023/11/25 11:26:52;;;;;;;23.80;10.50;;;;;;;5.24;62.64;99295.59;107528;1253;111208;-59